メインページ
METAR-TAF:

METAR-TAF

空港 :

ランシング首都圏国際空港

ランシング, ミシガン州, アメリカ合衆国

緯度: 42-46-49N, 経度: 084-34-44W, 海抜: 262m

現時点の気象観測

当レポートは26分前の05:53(UTC)に作成
南/南東の風 4kt
気温 8°C
湿度 53%
気圧 1017 hPa
視程: 16.1km
晴天

METAR: KLAN 040553Z 16004KT 10SM CLR 08/M01 A3003 RMK AO2 SLP170 T00781006 10122 20067 56005

時間: 02:19 (06:19 UTC)

予報

当レポートは39分前の05:40(UTC)に作成
予報は04日の 06時(UTC)から 05日の 06時(UTC)まで有効
東/南東の風 5kt
視程: 10km
高度8000ftの雲は散在している
04日の 1500時(UTC)から
の風 7kt
視程: 10km
高度3500ftの曇り
近辺でにわか雨
04日の 1700時(UTC)から
南西の風 8kt
視程: 9.7km
高度3500ftの曇り
靄, 近辺でにわか雨
04日の 1800時(UTC)から
西の風 8kt
視程: 9.7km
高度2000ftの曇り
04日の 2100時(UTC)から
西の風 8kt
視程: 9.7km
高度900ftの曇り
05日の 0200時(UTC)から
北西の風 7kt
視程: 10km
高度1500ftの曇り

TAF: KLAN 040540Z 0406/0506 12005KT P6SM SCT080 FM041500 19007KT P6SM VCSH OVC035 FM041700 23008KT 6SM BR VCSH OVC035 FM041800 26008KT 6SM BR OVC020 FM042100 28008KT 6SM BR OVC009 FM050200 32007KT P6SM OVC015

4,000以上の空港の気象観測と天気予報(METAR報とTAF報)

利用可能な観測所は地図上に黄色い丸と赤い丸で示す。

丸の上にカーソルを重ねると観測所名を参照できる。

次にクリックすると気象観測と天気予報を参照できる。

マップの切り替え:黒色「×」印の緑ボタンをクリックして拡大、「-」印の緑ボタンをクリックして縮小、緑色の三角印をクリックして隣りの地図に切り替え


METAR-TAF: